Time;durP1;ratioP1;P1;durP2;ratioP2;P2;SDS_P1;SDS_P2;PMS_P1;PMS_P2;Temp;Humidity;BMP_temperature;BMP_pressure;BME280_temperature;BME280_humidity;BME280_pressure;Samples;Min_cycle;Max_cycle;Signal;HPM_P1;HPM_P2
2022/11/12 00:00:12;;;;;;;32.08;21.90;;;;;;;6.24;100.00;94381.44;5113138;28;20148;-76
2022/11/12 00:02:39;;;;;;;33.00;21.27;;;;;;;6.17;100.00;94380.47;5113220;28;20047;-76
2022/11/12 00:05:08;;;;;;;35.53;22.08;;;;;;;6.22;100.00;94373.16;5112872;28;20055;-76
2022/11/12 00:07:35;;;;;;;36.30;22.55;;;;;;;5.97;100.00;94343.19;5112911;28;20051;-76
2022/11/12 00:10:02;;;;;;;33.35;20.92;;;;;;;6.22;100.00;94366.31;5112870;28;20124;-76
2022/11/12 00:12:28;;;;;;;32.40;21.17;;;;;;;6.27;100.00;94359.00;5112522;28;20079;-76
2022/11/12 00:14:55;;;;;;;39.20;23.13;;;;;;;6.28;100.00;94364.88;5112767;28;20421;-76
2022/11/12 00:17:22;;;;;;;36.28;21.70;;;;;;;6.21;100.00;94361.34;5112504;28;20055;-76
2022/11/12 00:19:49;;;;;;;34.92;22.75;;;;;;;6.17;100.00;94362.59;5113144;28;20052;-76
2022/11/12 00:22:17;;;;;;;33.97;21.67;;;;;;;6.16;100.00;94364.38;5111715;28;20546;-76
2022/11/12 00:24:43;;;;;;;34.58;22.80;;;;;;;6.17;100.00;94363.41;5112828;28;20482;-76
2022/11/12 00:27:10;;;;;;;32.80;21.58;;;;;;;6.22;100.00;94360.38;5112789;28;20086;-76
2022/11/12 00:29:37;;;;;;;30.92;20.40;;;;;;;6.17;100.00;94367.69;5112220;28;20039;-76
2022/11/12 00:32:04;;;;;;;32.70;20.92;;;;;;;6.26;100.00;94369.34;5112242;28;20100;-77
2022/11/12 00:34:31;;;;;;;34.65;21.00;;;;;;;6.27;100.00;94379.41;5112232;28;20075;-76
2022/11/12 00:36:58;;;;;;;32.13;21.52;;;;;;;6.24;100.00;94384.81;5112500;28;20530;-76
2022/11/12 00:39:26;;;;;;;30.70;19.27;;;;;;;6.22;100.00;94383.34;5112426;28;20079;-76
2022/11/12 00:41:53;;;;;;;31.35;19.65;;;;;;;6.22;100.00;94378.25;5112363;28;20051;-76
2022/11/12 00:44:19;;;;;;;34.70;20.58;;;;;;;6.19;100.00;94376.00;5112279;28;20200;-76
2022/11/12 00:46:46;;;;;;;33.25;21.13;;;;;;;5.94;100.00;94335.88;5111393;28;20044;-76
2022/11/12 00:49:13;;;;;;;31.60;20.35;;;;;;;6.17;100.00;94376.16;5111832;28;20075;-76
2022/11/12 00:51:40;;;;;;;35.20;21.65;;;;;;;6.10;100.00;94370.06;5112152;28;20078;-76
2022/11/12 00:54:07;;;;;;;33.60;21.05;;;;;;;6.17;100.00;94371.06;5098398;28;20049;-76
2022/11/12 00:56:36;;;;;;;31.20;20.88;;;;;;;6.13;100.00;94370.56;5097520;28;20059;-76
2022/11/12 00:59:02;;;;;;;33.00;20.50;;;;;;;6.17;100.00;94363.41;5111928;28;20043;-75
2022/11/12 01:01:29;;;;;;;31.88;21.27;;;;;;;6.18;100.00;94359.91;5111974;28;20100;-76
2022/11/12 01:03:58;;;;;;;29.00;19.83;;;;;;;6.13;100.00;94344.25;5111013;28;20085;-75
2022/11/12 01:06:25;;;;;;;28.27;18.23;;;;;;;6.18;100.00;94331.03;5111740;28;20048;-76
2022/11/12 01:08:52;;;;;;;27.60;17.77;;;;;;;6.24;100.00;94341.44;5111551;28;20104;-76
2022/11/12 01:11:22;;;;;;;31.67;19.70;;;;;;;6.28;100.00;94347.00;5111874;28;20562;-76
2022/11/12 01:13:55;;;;;;;28.10;18.65;;;;;;;6.29;100.00;94356.25;5111400;28;20048;-76
2022/11/12 01:16:25;;;;;;;26.35;17.33;;;;;;;6.21;100.00;94343.50;5111592;28;20493;-76
2022/11/12 01:18:54;;;;;;;26.23;16.75;;;;;;;6.28;100.00;94345.28;5111324;28;20048;-76
2022/11/12 01:21:22;;;;;;;25.83;16.85;;;;;;;6.30;100.00;94346.88;5111660;28;20047;-76
2022/11/12 01:23:49;;;;;;;23.95;16.00;;;;;;;6.40;100.00;94342.44;5111196;28;20092;-76
2022/11/12 01:26:19;;;;;;;22.10;15.05;;;;;;;6.36;100.00;94334.28;5111056;28;20082;-76
2022/11/12 01:28:46;;;;;;;22.55;14.68;;;;;;;6.34;100.00;94341.28;5111323;28;20157;-76
2022/11/12 01:31:17;;;;;;;18.42;12.88;;;;;;;6.11;100.00;94315.56;5110636;28;20100;-77
2022/11/12 01:33:45;;;;;;;22.02;14.05;;;;;;;6.24;100.00;94332.97;5111508;28;20488;-76
2022/11/12 01:36:13;;;;;;;20.42;13.52;;;;;;;6.16;100.00;94323.56;5110934;28;20109;-76
2022/11/12 01:38:41;;;;;;;21.60;13.85;;;;;;;6.23;100.00;94336.47;5111413;28;20163;-76
2022/11/12 01:41:11;;;;;;;19.65;12.50;;;;;;;6.25;100.00;94330.25;5111281;28;20052;-76
2022/11/12 01:43:38;;;;;;;18.40;12.63;;;;;;;5.99;100.00;94292.84;5111232;28;20069;-77
2022/11/12 01:46:12;;;;;;;20.63;12.40;;;;;;;6.25;100.00;94340.47;5110549;28;20073;-76
2022/11/12 01:48:47;;;;;;;17.00;11.50;;;;;;;6.27;100.00;94332.66;5098501;28;20051;-75
2022/11/12 01:51:15;;;;;;;18.88;11.90;;;;;;;6.24;100.00;94338.06;5110781;28;20140;-76
2022/11/12 01:53:47;;;;;;;17.98;12.40;;;;;;;6.30;100.00;94336.66;5104268;28;20053;-76
2022/11/12 01:56:16;;;;;;;16.38;11.48;;;;;;;6.35;100.00;94332.66;5090720;28;20108;-76
2022/11/12 01:58:44;;;;;;;18.45;11.68;;;;;;;6.44;100.00;94325.06;5109983;28;20083;-76
2022/11/12 02:01:11;;;;;;;11.98;8.52;;;;;;;6.40;100.00;94322.81;5110818;28;20048;-75
2022/11/12 02:03:38;;;;;;;9.38;6.57;;;;;;;6.40;100.00;94327.13;5110712;28;20059;-76
2022/11/12 02:06:11;;;;;;;7.95;5.68;;;;;;;6.46;100.00;94336.72;5110809;28;20055;-76
2022/11/12 02:08:39;;;;;;;7.63;5.40;;;;;;;6.43;100.00;94331.13;5110776;28;20055;-75
2022/11/12 02:11:13;;;;;;;8.13;5.53;;;;;;;6.45;100.00;94327.47;5110774;28;20079;-76
2022/11/12 02:13:57;;;;;;;6.85;4.93;;;;;;;6.24;100.00;94317.66;5110668;28;20074;-76
2022/11/12 02:16:25;;;;;;;7.63;5.47;;;;;;;6.46;100.00;94339.25;5109842;28;20505;-75
2022/11/12 02:18:51;;;;;;;6.88;4.50;;;;;;;6.30;100.00;94318.78;5110203;28;20087;-77
2022/11/12 02:21:21;;;;;;;7.57;4.68;;;;;;;6.36;100.00;94330.94;5110594;28;20116;-76
2022/11/12 02:23:57;;;;;;;7.57;5.13;;;;;;;6.29;100.00;94330.75;5110231;28;20097;-75
2022/11/12 02:26:24;;;;;;;6.70;4.93;;;;;;;6.22;100.00;94322.94;5110233;28;20127;-75
2022/11/12 02:28:51;;;;;;;6.82;4.50;;;;;;;6.12;100.00;94325.59;5110422;28;20530;-74
2022/11/12 02:31:18;;;;;;;9.10;5.70;;;;;;;6.12;100.00;94323.03;5110215;28;20047;-74
2022/11/12 02:33:44;;;;;;;12.10;8.45;;;;;;;6.23;100.00;94310.94;5110444;28;20047;-74
2022/11/12 02:36:11;;;;;;;12.48;8.02;;;;;;;6.28;100.00;94314.66;5109990;28;20051;-74
2022/11/12 02:38:39;;;;;;;13.23;8.68;;;;;;;6.40;100.00;94309.25;5109972;28;20069;-74
2022/11/12 02:41:06;;;;;;;8.77;6.30;;;;;;;6.41;100.00;94313.41;5109949;28;20082;-74
2022/11/12 02:43:33;;;;;;;9.85;7.15;;;;;;;6.33;100.00;94323.56;5110039;28;20082;-74
2022/11/12 02:45:59;;;;;;;13.68;8.85;;;;;;;6.21;100.00;94305.22;5110180;28;20087;-74
2022/11/12 02:48:26;;;;;;;11.50;8.05;;;;;;;6.10;100.00;94309.66;5110141;28;20051;-74
2022/11/12 02:50:53;;;;;;;12.85;8.95;;;;;;;6.17;100.00;94311.56;5109992;28;20103;-74
2022/11/12 02:53:20;;;;;;;15.88;9.82;;;;;;;6.08;100.00;94326.88;5109403;28;20450;-74
2022/11/12 02:55:48;;;;;;;14.57;9.50;;;;;;;5.95;100.00;94319.59;5082178;28;20047;-74
2022/11/12 02:58:14;;;;;;;14.60;9.93;;;;;;;5.87;100.00;94306.81;5109614;28;20513;-74
2022/11/12 03:00:41;;;;;;;11.50;8.02;;;;;;;5.88;100.00;94321.19;5109703;28;20079;-74
2022/11/12 03:03:08;;;;;;;12.63;8.68;;;;;;;5.92;100.00;94324.22;5110127;28;20055;-74
2022/11/12 03:05:36;;;;;;;13.50;9.40;;;;;;;5.92;100.00;94327.56;5109578;28;20043;-74
2022/11/12 03:08:05;;;;;;;12.30;8.77;;;;;;;5.80;100.00;94308.38;5109772;28;20043;-74
2022/11/12 03:10:32;;;;;;;10.63;7.55;;;;;;;5.99;100.00;94320.91;5112959;28;20472;-74
2022/11/12 03:13:02;;;;;;;11.48;7.68;;;;;;;6.04;100.00;94317.91;5114149;28;20480;-74
2022/11/12 03:15:29;;;;;;;9.52;6.82;;;;;;;6.00;100.00;94322.50;5114083;28;20083;-75
2022/11/12 03:17:57;;;;;;;9.52;7.18;;;;;;;5.85;100.00;94298.53;5113879;28;20075;-75
2022/11/12 03:20:24;;;;;;;9.80;7.28;;;;;;;5.91;100.00;94313.22;5113902;28;20044;-75
2022/11/12 03:22:56;;;;;;;10.73;7.35;;;;;;;5.86;100.00;94307.75;5113953;28;20040;-75
2022/11/12 03:25:24;;;;;;;12.00;9.25;;;;;;;5.88;100.00;94316.88;5113856;28;20048;-75
2022/11/12 03:27:57;;;;;;;12.60;8.65;;;;;;;5.89;100.00;94307.47;5099444;28;20075;-74
2022/11/12 03:30:27;;;;;;;9.32;7.20;;;;;;;5.97;100.00;94307.50;5113569;28;20101;-74
2022/11/12 03:32:54;;;;;;;11.23;8.20;;;;;;;5.77;100.00;94296.72;5113542;28;20116;-75
2022/11/12 03:35:21;;;;;;;10.88;7.75;;;;;;;5.86;100.00;94315.41;5113535;28;20051;-74
2022/11/12 03:37:48;;;;;;;10.55;7.82;;;;;;;5.83;100.00;94313.19;5113395;28;20047;-75
2022/11/12 03:40:14;;;;;;;11.40;7.97;;;;;;;5.82;100.00;94316.66;5113572;28;20047;-75
2022/11/12 03:42:46;;;;;;;12.35;8.63;;;;;;;5.70;100.00;94303.41;5113552;28;20120;-74
2022/11/12 03:45:13;;;;;;;12.20;8.50;;;;;;;5.60;100.00;94308.63;5113163;28;20058;-75
2022/11/12 03:47:43;;;;;;;13.63;8.85;;;;;;;5.56;100.00;94313.19;5113422;28;20081;-75
2022/11/12 03:50:10;;;;;;;11.90;9.02;;;;;;;5.46;100.00;94315.06;5113152;28;20044;-75
2022/11/12 03:52:37;;;;;;;13.85;9.07;;;;;;;5.30;100.00;94298.72;5113200;28;20485;-74
2022/11/12 03:55:05;;;;;;;13.95;9.27;;;;;;;5.43;100.00;94313.63;5084085;28;20091;-74
2022/11/12 03:57:32;;;;;;;11.45;9.00;;;;;;;5.25;100.00;94293.28;5113246;28;20050;-74
2022/11/12 03:59:58;;;;;;;15.27;10.27;;;;;;;5.38;100.00;94297.97;5113335;28;20070;-74
2022/11/12 04:02:25;;;;;;;12.50;8.93;;;;;;;5.39;100.00;94291.13;5113163;28;20040;-74
2022/11/12 04:10:22;;;;;;;10.05;7.13;;;;;;;5.40;100.00;94290.97;5112237;28;20054;-76
2022/11/12 04:15:32;;;;;;;10.10;6.85;;;;;;;5.46;100.00;94297.22;5112626;28;20065;-76
2022/11/12 04:23:29;;;;;;;8.02;5.97;;;;;;;5.50;100.00;94307.91;5112199;28;20523;-76
2022/11/12 04:30:14;;;;;;;9.80;6.35;;;;;;;5.59;100.00;94301.91;5112526;28;20420;-75
2022/11/12 04:31:25;;;;;;;10.80;6.70;;;;;;;5.64;100.00;94317.53;5112350;28;20130;-75
2022/11/12 04:33:52;;;;;;;9.98;6.68;;;;;;;5.69;100.00;94314.56;5112179;28;20166;-75
2022/11/12 04:36:20;;;;;;;10.15;7.70;;;;;;;5.66;100.00;94313.09;5112214;28;20547;-75
2022/11/12 04:38:47;;;;;;;9.02;6.28;;;;;;;5.70;100.00;94309.28;5112343;28;20048;-74
2022/11/12 04:46:53;;;;;;;9.48;6.72;;;;;;;5.17;100.00;94304.22;5104417;28;20163;-74
2022/11/12 04:49:20;;;;;;;10.65;7.20;;;;;;;5.16;100.00;94297.53;5097212;28;20096;-75
2022/11/12 04:52:06;;;;;;;9.27;6.30;;;;;;;4.97;100.00;94288.31;5109841;28;20124;-75
2022/11/12 04:54:34;;;;;;;9.88;6.68;;;;;;;4.86;100.00;94286.78;5081907;28;20460;-74
2022/11/12 04:57:00;;;;;;;10.55;7.45;;;;;;;4.77;100.00;94287.69;5101779;28;20052;-74
2022/11/12 04:59:27;;;;;;;11.90;7.70;;;;;;;4.73;100.00;94286.38;5085627;28;20554;-74
2022/11/12 05:01:54;;;;;;;10.32;7.40;;;;;;;4.54;100.00;94283.81;5085801;28;20090;-75
2022/11/12 05:04:20;;;;;;;10.73;7.32;;;;;;;4.53;100.00;94294.97;5088576;28;20087;-75
2022/11/12 05:06:51;;;;;;;11.27;8.13;;;;;;;4.52;100.00;94297.63;5109138;28;20052;-75
2022/11/12 05:09:19;;;;;;;11.32;8.20;;;;;;;4.48;100.00;94291.22;5091104;28;20125;-75
2022/11/12 05:11:46;;;;;;;11.75;8.05;;;;;;;4.51;100.00;94303.69;5109354;28;20040;-75
2022/11/12 05:14:13;;;;;;;10.02;7.88;;;;;;;4.48;100.00;94306.50;5086062;28;20184;-75
2022/11/12 05:16:40;;;;;;;12.50;7.75;;;;;;;4.51;100.00;94317.22;5111690;28;20051;-75
2022/11/12 05:19:09;;;;;;;12.38;8.02;;;;;;;4.54;100.00;94319.44;5090014;28;20048;-74
2022/11/12 05:24:22;;;;;;;12.02;9.07;;;;;;;4.66;100.00;94337.06;5077374;28;20130;-75
2022/11/12 05:26:48;;;;;;;9.98;7.25;;;;;;;4.83;100.00;94343.09;5076676;28;20091;-74
2022/11/12 05:29:15;;;;;;;9.27;6.57;;;;;;;4.81;100.00;94344.97;5096810;28;20096;-74
2022/11/12 05:31:42;;;;;;;10.60;7.70;;;;;;;4.81;100.00;94347.53;5091295;28;20093;-73
2022/11/12 05:34:08;;;;;;;11.35;8.73;;;;;;;4.79;100.00;94341.78;5091006;28;20456;-73
2022/11/12 05:36:35;;;;;;;13.02;9.48;;;;;;;4.79;100.00;94355.31;5110005;28;20184;-73
2022/11/12 05:39:02;;;;;;;15.57;11.57;;;;;;;4.80;100.00;94341.66;5111133;28;20662;-73
2022/11/12 05:41:30;;;;;;;12.93;9.52;;;;;;;4.74;100.00;94346.50;5098802;28;20047;-73
2022/11/12 05:43:57;;;;;;;13.18;9.45;;;;;;;4.70;100.00;94337.56;5102153;28;20168;-74
2022/11/12 05:46:24;;;;;;;12.70;8.45;;;;;;;4.67;100.00;94336.91;5111114;28;20434;-74
2022/11/12 05:48:50;;;;;;;12.05;9.65;;;;;;;4.62;100.00;94331.47;5111230;28;20043;-74
2022/11/12 05:51:17;;;;;;;11.23;8.13;;;;;;;4.76;100.00;94355.59;5098766;28;20095;-74
2022/11/12 05:53:44;;;;;;;11.95;8.65;;;;;;;4.75;100.00;94358.28;5103272;28;20089;-74
2022/11/12 05:56:11;;;;;;;11.80;9.23;;;;;;;4.73;100.00;94363.53;5090112;28;20124;-74
2022/11/12 05:58:39;;;;;;;12.15;8.50;;;;;;;4.79;100.00;94357.88;5078151;28;20555;-74
2022/11/12 06:01:13;;;;;;;13.45;9.32;;;;;;;4.68;100.00;94363.97;5069563;28;20070;-78
2022/11/12 06:03:43;;;;;;;16.25;11.52;;;;;;;4.67;100.00;94336.09;5080664;28;20048;-77
2022/11/12 06:06:10;;;;;;;13.52;9.43;;;;;;;4.88;100.00;94370.66;5087227;28;20121;-77
2022/11/12 06:08:37;;;;;;;13.07;10.07;;;;;;;4.93;100.00;94366.75;5109868;28;20152;-77
2022/11/12 06:11:03;;;;;;;13.95;9.13;;;;;;;4.95;100.00;94380.13;5110748;28;20083;-76
2022/11/12 06:13:30;;;;;;;13.30;9.07;;;;;;;4.98;100.00;94378.22;5110388;28;20124;-77
2022/11/12 06:15:58;;;;;;;12.23;9.00;;;;;;;4.91;100.00;94355.88;5110393;28;20051;-76
2022/11/12 06:18:25;;;;;;;12.73;9.57;;;;;;;5.00;100.00;94358.53;5108197;28;20497;-77
2022/11/12 06:23:33;;;;;;;10.95;8.93;;;;;;;5.22;100.00;94372.53;5109694;28;20476;-74
2022/11/12 06:25:59;;;;;;;12.65;9.02;;;;;;;5.21;100.00;94376.03;5081212;28;20049;-75
2022/11/12 06:28:26;;;;;;;11.98;9.25;;;;;;;5.30;100.00;94377.72;5110366;28;20047;-75
2022/11/12 06:30:53;;;;;;;29.48;14.82;;;;;;;5.39;100.00;94381.13;5109605;28;20508;-75
2022/11/12 06:33:22;;;;;;;44.22;24.50;;;;;;;5.55;100.00;94387.28;5101005;28;20121;-78
2022/11/12 06:35:55;;;;;;;16.88;12.30;;;;;;;5.58;100.00;94389.50;5099517;28;20116;-77
2022/11/12 06:38:22;;;;;;;18.90;14.23;;;;;;;5.51;100.00;94351.06;5109822;28;20668;-75
2022/11/12 06:40:49;;;;;;;11.85;9.05;;;;;;;5.68;100.00;94382.56;5109887;28;20100;-75
2022/11/12 06:43:16;;;;;;;14.07;9.40;;;;;;;5.77;100.00;94408.09;5109973;28;20051;-75
2022/11/12 06:45:42;;;;;;;12.07;8.52;;;;;;;5.74;100.00;94392.16;5109643;27;20048;-75
2022/11/12 06:48:09;;;;;;;11.15;8.60;;;;;;;5.75;100.00;94393.75;5109716;28;20048;-75
2022/11/12 06:50:37;;;;;;;11.88;9.13;;;;;;;5.71;100.00;94374.63;5109523;28;20039;-75
2022/11/12 06:53:04;;;;;;;15.35;10.65;;;;;;;5.80;100.00;94377.22;5105067;28;20135;-76
2022/11/12 06:55:31;;;;;;;14.75;11.52;;;;;;;5.87;100.00;94371.38;5073976;28;20467;-77
2022/11/12 06:57:57;;;;;;;12.93;9.88;;;;;;;6.01;100.00;94384.50;5080199;28;20048;-77
2022/11/12 07:00:24;;;;;;;32.72;20.75;;;;;;;5.98;100.00;94365.19;5094363;28;20475;-76
2022/11/12 07:02:51;;;;;;;17.52;11.23;;;;;;;6.24;100.00;94400.09;5109753;28;20056;-77
2022/11/12 07:05:17;;;;;;;13.18;9.05;;;;;;;6.38;100.00;94406.38;5106025;28;20454;-76
2022/11/12 07:07:46;;;;;;;12.18;9.48;;;;;;;6.30;100.00;94408.09;5091574;28;20056;-76
2022/11/12 07:10:12;;;;;;;13.20;9.02;;;;;;;6.30;100.00;94415.75;5109560;28;20048;-77
2022/11/12 07:12:39;;;;;;;11.55;8.63;;;;;;;6.32;100.00;94424.88;5109730;28;20048;-77
2022/11/12 07:15:06;;;;;;;11.75;8.07;;;;;;;6.36;100.00;94422.81;5109734;28;20051;-77
2022/11/12 07:17:33;;;;;;;13.13;8.07;;;;;;;6.51;100.00;94420.47;5109601;28;20096;-76
2022/11/12 07:20:00;;;;;;;10.65;7.28;;;;;;;6.40;100.00;94419.78;5099866;28;20040;-77
2022/11/12 07:22:27;;;;;;;12.07;8.38;;;;;;;6.40;100.00;94411.34;5109460;28;20423;-76
2022/11/12 07:24:55;;;;;;;11.35;7.97;;;;;;;6.30;100.00;94396.16;5109371;28;20051;-76
2022/11/12 07:27:22;;;;;;;13.70;9.93;;;;;;;6.25;100.00;94411.91;5081173;28;20092;-76
2022/11/12 07:29:48;;;;;;;15.73;10.38;;;;;;;6.35;100.00;94411.00;5109555;28;20136;-76
2022/11/12 07:32:15;;;;;;;11.98;9.10;;;;;;;6.35;100.00;94408.44;5089534;28;20101;-76
2022/11/12 07:34:42;;;;;;;14.55;9.93;;;;;;;6.54;100.00;94415.84;5109235;28;20112;-76
2022/11/12 07:37:08;;;;;;;15.32;10.18;;;;;;;6.51;100.00;94408.50;5109598;28;20095;-76
2022/11/12 07:39:35;;;;;;;11.93;8.18;;;;;;;6.53;100.00;94413.47;5108966;28;20079;-77
2022/11/12 07:42:04;;;;;;;12.02;8.02;;;;;;;6.59;100.00;94406.94;5109799;28;20051;-76
2022/11/12 07:44:30;;;;;;;9.02;7.07;;;;;;;6.59;100.00;94409.47;5109241;28;20585;-77
2022/11/12 07:46:57;;;;;;;11.52;7.97;;;;;;;6.47;100.00;94417.44;5109170;28;20128;-76
2022/11/12 07:49:24;;;;;;;9.82;7.55;;;;;;;6.45;100.00;94404.03;5109374;28;20055;-76
2022/11/12 07:51:53;;;;;;;12.15;8.68;;;;;;;6.34;100.00;94415.28;5085116;28;20098;-77
2022/11/12 07:54:20;;;;;;;11.32;8.32;;;;;;;6.36;100.00;94413.41;5094288;28;20480;-77
2022/11/12 07:56:47;;;;;;;12.10;8.43;;;;;;;6.50;100.00;94421.44;5099064;28;20051;-76
2022/11/12 07:59:15;;;;;;;13.63;8.82;;;;;;;6.48;100.00;94421.56;5101466;28;20051;-77
2022/11/12 08:01:42;;;;;;;12.55;8.40;;;;;;;6.58;100.00;94415.56;5089886;28;20064;-76
2022/11/12 08:04:10;;;;;;;10.68;8.18;;;;;;;6.61;100.00;94417.81;5111921;28;20078;-78
2022/11/12 08:06:37;;;;;;;11.13;8.70;;;;;;;6.62;100.00;94401.53;5113231;28;20043;-76
2022/11/12 08:09:06;;;;;;;11.20;7.63;;;;;;;6.59;100.00;94394.97;5092113;28;20051;-76
2022/11/12 08:11:34;;;;;;;10.23;8.27;;;;;;;6.88;100.00;94419.31;5112653;28;20052;-76
2022/11/12 08:14:01;;;;;;;13.75;8.52;;;;;;;6.82;100.00;94428.38;5112844;28;20382;-76
2022/11/12 08:16:29;;;;;;;11.82;8.18;;;;;;;6.89;100.00;94430.34;5112896;28;21034;-76
2022/11/12 08:18:55;;;;;;;13.85;11.13;;;;;;;6.97;100.00;94426.97;5091918;28;20098;-76
2022/11/12 08:21:22;;;;;;;12.02;7.90;;;;;;;7.05;100.00;94427.00;5110581;28;20039;-76
2022/11/12 08:23:49;;;;;;;11.30;8.15;;;;;;;7.25;100.00;94421.56;5097511;28;20122;-76
2022/11/12 08:26:18;;;;;;;12.88;9.02;;;;;;;7.50;100.00;94412.16;5099656;28;20075;-76
2022/11/12 08:28:45;;;;;;;9.70;7.05;;;;;;;7.44;100.00;94416.16;5098500;28;20104;-75
2022/11/12 08:31:14;;;;;;;10.55;6.93;;;;;;;7.38;100.00;94410.88;5109768;28;20044;-76
2022/11/12 08:33:43;;;;;;;9.30;6.75;;;;;;;7.29;100.00;94398.13;5110814;28;20092;-76
2022/11/12 08:36:12;;;;;;;9.55;6.43;;;;;;;7.26;100.00;94403.53;5112588;28;20051;-76
2022/11/12 08:38:39;;;;;;;10.48;7.15;;;;;;;6.81;100.00;94369.81;5112151;28;20052;-77
2022/11/12 08:41:08;;;;;;;11.05;7.55;;;;;;;7.12;100.00;94409.28;5112344;28;20096;-76
2022/11/12 08:43:36;;;;;;;11.38;7.38;;;;;;;6.93;100.00;94390.72;5111832;28;20132;-76
2022/11/12 08:46:04;;;;;;;13.65;8.57;;;;;;;7.13;100.00;94398.88;5112120;28;20048;-76
2022/11/12 08:48:32;;;;;;;8.02;6.50;;;;;;;7.11;100.00;94400.81;5088160;28;20048;-75
2022/11/12 08:51:02;;;;;;;7.57;5.90;;;;;;;6.94;100.00;94399.97;5071087;28;20049;-76
2022/11/12 08:53:29;;;;;;;9.52;6.03;;;;;;;6.93;100.00;94399.19;5071873;28;20040;-76
2022/11/12 08:55:56;;;;;;;8.85;6.47;;;;;;;7.00;100.00;94390.91;5070791;28;20116;-76
2022/11/12 08:58:24;;;;;;;10.38;6.68;;;;;;;7.01;100.00;94393.31;5098694;28;20080;-74
2022/11/12 09:00:51;;;;;;;8.70;5.80;;;;;;;7.09;100.00;94377.97;5111894;28;20051;-74
2022/11/12 09:03:20;;;;;;;9.02;5.72;;;;;;;6.94;100.00;94370.13;5112256;28;20075;-74
2022/11/12 09:05:47;;;;;;;8.05;6.07;;;;;;;7.04;100.00;94385.31;5111708;28;20530;-75
2022/11/12 09:08:17;;;;;;;9.15;5.90;;;;;;;6.86;100.00;94372.69;5111143;28;20077;-75
2022/11/12 09:10:44;;;;;;;10.18;6.07;;;;;;;7.15;100.00;94378.28;5111900;28;20044;-76
2022/11/12 09:13:11;;;;;;;8.40;6.03;;;;;;;7.07;100.00;94367.13;5111838;28;20051;-74
2022/11/12 09:15:38;;;;;;;7.75;5.20;;;;;;;6.93;100.00;94344.75;5111519;28;20509;-77
2022/11/12 09:18:08;;;;;;;15.57;6.38;;;;;;;6.96;100.00;94370.00;5083700;28;20639;-77
2022/11/12 09:20:35;;;;;;;7.55;5.30;;;;;;;7.08;100.00;94361.06;5072582;28;20070;-76
2022/11/12 09:23:03;;;;;;;6.68;4.47;;;;;;;6.96;100.00;94364.88;5072668;28;20114;-76
2022/11/12 09:25:38;;;;;;;7.97;5.78;;;;;;;7.19;100.00;94369.38;5070320;28;20049;-75
2022/11/12 09:28:09;;;;;;;9.05;6.88;;;;;;;7.31;100.00;94364.75;5086150;28;20558;-75
2022/11/12 09:30:36;;;;;;;22.40;13.07;;;;;;;7.26;100.00;94354.19;5111207;28;20043;-76
2022/11/12 09:33:03;;;;;;;19.00;11.68;;;;;;;7.31;100.00;94369.84;5099414;28;20191;-76
2022/11/12 09:35:30;;;;;;;11.30;7.60;;;;;;;7.47;100.00;94374.16;5111421;28;20047;-76
2022/11/12 09:37:57;;;;;;;27.80;15.50;;;;;;;7.30;100.00;94384.38;5111157;28;20462;-76
2022/11/12 09:40:32;;;;;;;30.77;16.65;;;;;;;7.17;100.00;94343.19;5111235;28;20150;-76
2022/11/12 09:43:00;;;;;;;6.55;4.35;;;;;;;7.33;100.00;94368.72;5111107;28;20118;-76
2022/11/12 09:45:31;;;;;;;7.70;4.78;;;;;;;7.44;100.00;94377.81;5100941;28;20052;-76
2022/11/12 09:48:02;;;;;;;14.73;9.20;;;;;;;7.67;100.00;94371.22;5069903;28;20048;-75
2022/11/12 09:50:32;;;;;;;11.40;7.22;;;;;;;7.75;100.00;94381.47;5069575;28;20052;-76
2022/11/12 09:53:04;;;;;;;17.60;10.70;;;;;;;7.79;100.00;94380.19;5069284;28;20051;-75
2022/11/12 09:55:34;;;;;;;8.93;5.53;;;;;;;7.93;100.00;94354.88;5070882;28;20540;-76
2022/11/12 09:58:06;;;;;;;8.52;5.07;;;;;;;7.96;98.68;94375.81;5069722;28;20379;-76
2022/11/12 10:00:33;;;;;;;6.53;4.82;;;;;;;8.05;99.14;94396.28;5069582;28;20121;-76
2022/11/12 10:03:07;;;;;;;6.35;4.45;;;;;;;8.05;98.99;94391.16;5068963;28;20049;-76
2022/11/12 10:05:39;;;;;;;8.80;5.38;;;;;;;7.99;98.35;94384.91;5069722;28;20044;-76
2022/11/12 10:08:31;;;;;;;8.00;6.05;;;;;;;8.06;97.01;94365.38;5068395;28;20837;-76
2022/11/12 10:11:10;;;;;;;7.57;4.57;;;;;;;7.92;98.25;94381.44;5082886;28;20125;-76
2022/11/12 10:13:52;;;;;;;12.35;7.18;;;;;;;7.80;100.00;94374.09;5069582;28;20049;-76
2022/11/12 10:16:43;;;;;;;6.35;4.20;;;;;;;7.68;99.27;94373.63;5097172;28;20079;-76
2022/11/12 10:19:34;;;;;;;9.05;5.03;;;;;;;7.69;100.00;94364.22;5073968;28;20078;-75
2022/11/12 10:22:18;;;;;;;8.90;5.38;;;;;;;7.78;100.00;94370.09;5068494;28;20425;-75
2022/11/12 10:24:45;;;;;;;8.30;4.15;;;;;;;7.51;100.00;94364.38;5069163;28;20052;-75
2022/11/12 10:27:16;;;;;;;6.40;4.15;;;;;;;7.37;100.00;94347.94;5074868;28;20139;-76
2022/11/12 10:29:52;;;;;;;7.32;4.90;;;;;;;7.52;100.00;94382.13;5082212;28;20040;-76
2022/11/12 10:32:18;;;;;;;8.00;5.60;;;;;;;7.52;100.00;94366.78;5086982;28;20043;-76
2022/11/12 10:34:45;;;;;;;7.72;4.97;;;;;;;7.59;100.00;94339.59;5089501;28;20506;-76
2022/11/12 10:37:17;;;;;;;7.32;4.55;;;;;;;7.68;100.00;94368.50;5089111;28;20052;-77
2022/11/12 10:39:46;;;;;;;8.85;5.85;;;;;;;7.59;100.00;94344.72;5088649;28;20051;-76
2022/11/12 10:42:17;;;;;;;13.65;9.10;;;;;;;7.52;100.00;94335.31;5089080;28;20524;-75
2022/11/12 10:44:46;;;;;;;9.35;5.82;;;;;;;7.61;100.00;94335.16;5084335;28;20040;-75
2022/11/12 10:47:26;;;;;;;8.77;5.68;;;;;;;7.74;100.00;94360.19;5089060;28;20050;-75
2022/11/12 10:50:18;;;;;;;11.23;6.78;;;;;;;7.50;100.00;94358.47;5073887;28;20048;-75
2022/11/12 10:52:57;;;;;;;9.32;5.53;;;;;;;7.47;100.00;94344.28;5107847;28;20052;-75
2022/11/12 10:55:27;;;;;;;6.60;4.45;;;;;;;7.42;100.00;94356.75;5082712;28;20059;-75
2022/11/12 10:58:15;;;;;;;8.18;4.57;;;;;;;7.48;100.00;94371.44;5105018;28;20044;-75
2022/11/12 11:00:58;;;;;;;8.20;5.00;;;;;;;7.35;100.00;94332.75;5109795;28;20626;-75
2022/11/12 11:03:27;;;;;;;11.40;5.57;;;;;;;7.42;100.00;94369.53;5109764;28;20458;-75
2022/11/12 11:05:58;;;;;;;8.65;5.40;;;;;;;7.56;100.00;94354.47;5109583;28;20051;-75
2022/11/12 11:08:33;;;;;;;9.20;7.07;;;;;;;7.74;100.00;94360.19;5109553;28;20047;-76
2022/11/12 11:11:19;;;;;;;5.45;4.05;;;;;;;7.69;100.00;94365.00;5110078;28;20047;-75
2022/11/12 11:13:46;;;;;;;;;;;;;;;7.92;100.00;94354.06;5085630;28;20554;-76
2022/11/12 11:16:16;;;;;;;16.45;10.95;;;;;;;7.97;100.00;94318.56;5109437;28;19981;-75
2022/11/12 11:18:49;;;;;;;9.52;6.10;;;;;;;7.98;100.00;94347.50;5105055;28;20062;-75
2022/11/12 11:21:40;;;;;;;7.40;4.85;;;;;;;8.09;100.00;94339.47;5102946;28;20055;-75
2022/11/12 11:24:21;;;;;;;5.57;3.92;;;;;;;8.16;100.00;94342.16;5109729;28;20087;-75
2022/11/12 11:26:56;;;;;;;6.85;4.45;;;;;;;8.16;100.00;94339.63;5109492;28;20497;-74
2022/11/12 11:29:44;;;;;;;7.17;4.90;;;;;;;8.24;100.00;94321.66;5109823;28;20138;-74
2022/11/12 11:32:32;;;;;;;6.75;4.35;;;;;;;8.16;100.00;94319.91;5107666;28;20052;-73
2022/11/12 11:35:11;;;;;;;6.53;4.53;;;;;;;8.07;100.00;94326.06;5113642;28;20048;-74
2022/11/12 11:37:47;;;;;;;4.88;3.88;;;;;;;8.06;100.00;94305.75;5113468;28;20097;-73
2022/11/12 11:40:19;;;;;;;;;;;;;;;8.27;100.00;94333.31;5113593;28;20051;-74
2022/11/12 11:42:58;;;;;;;6.65;3.97;;;;;;;8.09;100.00;94313.88;5113548;28;19924;-74
2022/11/12 11:45:32;;;;;;;6.25;4.25;;;;;;;7.98;100.00;94344.94;5113547;28;20043;-73
2022/11/12 11:48:13;;;;;;;5.68;3.33;;;;;;;7.79;100.00;94330.78;5113133;27;20504;-72
2022/11/12 11:50:46;;;;;;;5.68;4.13;;;;;;;8.02;100.00;94326.53;5113350;28;20102;-74
2022/11/12 11:53:21;;;;;;;6.60;4.40;;;;;;;8.08;100.00;94319.97;5113363;28;20109;-74
2022/11/12 11:55:54;;;;;;;5.85;4.20;;;;;;;7.79;100.00;94289.84;5086164;28;20126;-76
2022/11/12 11:58:44;;;;;;;6.45;3.90;;;;;;;7.92;100.00;94315.69;5113290;28;20083;-74
2022/11/12 12:01:20;;;;;;;5.85;4.10;;;;;;;7.91;100.00;94329.44;5113075;28;20093;-74
2022/11/12 12:04:06;;;;;;;5.72;4.18;;;;;;;7.81;100.00;94339.06;5112719;28;20114;-75